createdAt,value
2019-01-29T00:00:29.179Z,-8.78
2019-01-29T00:03:03.828Z,-8.65
2019-01-29T00:05:37.011Z,-8.51
2019-01-29T00:08:10.294Z,-8.34
2019-01-29T00:10:45.388Z,-8.28
2019-01-29T00:13:18.688Z,-8.26
2019-01-29T00:15:52.297Z,-8.15
2019-01-29T00:18:25.470Z,-8.04
2019-01-29T00:20:58.982Z,-7.90
2019-01-29T00:23:32.052Z,-7.61
2019-01-29T00:26:05.773Z,-7.29
2019-01-29T00:28:39.140Z,-7.08
2019-01-29T00:31:12.634Z,-6.85
2019-01-29T00:33:45.876Z,-6.85
2019-01-29T00:36:19.413Z,-6.85
2019-01-29T00:38:53.265Z,-6.87
2019-01-29T00:41:27.140Z,-6.74
2019-01-29T00:44:00.893Z,-6.53
2019-01-29T00:46:34.751Z,-6.32
2019-01-29T00:49:08.150Z,-6.41
2019-01-29T00:51:41.661Z,-6.63
2019-01-29T00:54:16.126Z,-6.65
2019-01-29T00:56:49.377Z,-6.31
2019-01-29T00:59:24.251Z,-6.16
2019-01-29T01:01:57.506Z,-6.06
2019-01-29T01:04:30.930Z,-6.11
2019-01-29T01:07:04.444Z,-6.22
2019-01-29T01:09:39.111Z,-6.17
2019-01-29T01:12:12.751Z,-6.07
2019-01-29T01:14:46.249Z,-5.71
2019-01-29T01:17:19.724Z,-5.67
2019-01-29T01:19:53.457Z,-5.67
2019-01-29T01:22:27.895Z,-5.81
2019-01-29T01:25:01.565Z,-5.93
2019-01-29T01:27:35.135Z,-5.96
2019-01-29T01:30:17.077Z,-5.96
2019-01-29T01:32:51.594Z,-5.86
2019-01-29T01:35:26.082Z,-5.83
2019-01-29T01:37:59.688Z,-5.76
2019-01-29T01:40:33.033Z,-5.69
2019-01-29T01:43:07.633Z,-5.49
2019-01-29T01:45:41.249Z,-5.55
2019-01-29T01:48:14.656Z,-5.47
2019-01-29T01:50:48.177Z,-5.29
2019-01-29T01:53:22.466Z,-5.05
2019-01-29T01:55:56.275Z,-4.74
2019-01-29T01:58:30.616Z,-4.48
2019-01-29T02:01:03.923Z,-4.25
2019-01-29T02:03:37.678Z,-4.31
2019-01-29T02:06:10.809Z,-4.22
2019-01-29T02:08:43.843Z,-4.09
2019-01-29T02:11:17.573Z,-3.95
2019-01-29T02:13:51.778Z,-4.05
2019-01-29T02:16:25.701Z,-3.82
2019-01-29T02:18:58.986Z,-3.57
2019-01-29T02:21:33.229Z,-3.38
2019-01-29T02:24:07.731Z,-3.19
2019-01-29T02:26:41.357Z,-2.76
2019-01-29T02:29:15.965Z,-2.22
2019-01-29T02:31:49.309Z,-2.50
2019-01-29T02:34:22.565Z,-2.66
2019-01-29T02:36:55.946Z,-2.64
2019-01-29T02:39:30.610Z,-2.58
2019-01-29T02:42:05.755Z,-2.40
2019-01-29T02:44:39.014Z,-2.00
2019-01-29T02:47:12.407Z,-1.56
2019-01-29T02:49:45.917Z,-1.33
2019-01-29T02:52:20.665Z,-0.89
2019-01-29T02:54:54.441Z,-0.52
2019-01-29T02:57:28.723Z,0.02
2019-01-29T03:00:01.970Z,-0.25
2019-01-29T03:02:36.522Z,-0.74
2019-01-29T03:05:12.391Z,-0.73
2019-01-29T03:07:46.574Z,-1.04
2019-01-29T03:10:22.255Z,-0.94
2019-01-29T03:12:59.089Z,-0.82
2019-01-29T03:15:33.590Z,-0.76
2019-01-29T03:21:33.627Z,-0.55
2019-01-29T03:24:07.028Z,-0.35
2019-01-29T03:26:41.740Z,-0.02
2019-01-29T03:29:15.489Z,0.10
2019-01-29T03:31:49.649Z,0.17
2019-01-29T03:34:43.803Z,0.28
2019-01-29T03:37:16.891Z,0.77
2019-01-29T03:39:50.121Z,1.35
2019-01-29T03:42:24.631Z,1.19
2019-01-29T03:44:58.076Z,1.36
2019-01-29T03:47:32.051Z,1.55
2019-01-29T03:50:06.712Z,1.77
2019-01-29T03:52:39.794Z,1.79
2019-01-29T03:55:13.662Z,1.83
2019-01-29T03:57:47.515Z,1.72
2019-01-29T04:00:23.706Z,1.74
2019-01-29T04:02:57.405Z,1.59
2019-01-29T04:05:31.768Z,1.76
2019-01-29T04:08:05.149Z,1.87
2019-01-29T04:10:38.741Z,1.84
2019-01-29T04:13:12.288Z,2.02
2019-01-29T04:15:45.700Z,1.81
2019-01-29T04:18:20.377Z,1.81
2019-01-29T04:20:55.409Z,2.01
2019-01-29T04:23:29.816Z,2.19
2019-01-29T04:26:03.213Z,2.24
2019-01-29T04:28:36.471Z,2.37
2019-01-29T04:31:10.170Z,2.29
2019-01-29T04:33:43.608Z,2.06
2019-01-29T04:36:18.481Z,1.93
2019-01-29T04:38:51.684Z,2.07
2019-01-29T04:41:25.734Z,2.33
2019-01-29T04:44:00.304Z,2.30
2019-01-29T04:46:33.414Z,2.35
2019-01-29T04:49:07.366Z,2.29
2019-01-29T04:51:42.582Z,2.44
2019-01-29T04:54:18.109Z,2.50
2019-01-29T04:56:51.569Z,2.42
2019-01-29T04:59:25.082Z,2.31
2019-01-29T05:01:58.957Z,2.38
2019-01-29T05:04:34.465Z,2.48
2019-01-29T05:07:08.181Z,2.52
2019-01-29T05:09:42.606Z,2.49
2019-01-29T05:12:16.521Z,2.68
2019-01-29T05:14:49.842Z,2.63
2019-01-29T05:17:22.929Z,2.80
2019-01-29T05:19:56.303Z,2.82
2019-01-29T05:22:37.180Z,2.88
2019-01-29T05:25:04.057Z,2.99
2019-01-29T05:27:37.216Z,3.06
2019-01-29T05:30:20.477Z,3.01
2019-01-29T05:32:52.378Z,2.87
2019-01-29T05:35:25.701Z,3.04
2019-01-29T05:37:59.926Z,3.22
2019-01-29T05:40:33.317Z,3.46
2019-01-29T05:43:06.974Z,3.61
2019-01-29T05:45:39.854Z,3.36
2019-01-29T05:48:13.122Z,3.12
2019-01-29T05:50:46.380Z,3.27
2019-01-29T05:53:19.684Z,3.40
2019-01-29T05:55:53.378Z,3.45
2019-01-29T05:58:27.525Z,3.37
2019-01-29T06:01:00.800Z,3.31
2019-01-29T06:03:34.663Z,3.29
2019-01-29T06:06:08.153Z,3.27
2019-01-29T06:08:41.743Z,3.34
2019-01-29T06:11:14.847Z,3.36
2019-01-29T06:13:49.566Z,3.26
2019-01-29T06:16:23.399Z,3.31
2019-01-29T06:18:58.357Z,3.22
2019-01-29T06:21:31.627Z,3.13
2019-01-29T06:24:06.065Z,3.09
2019-01-29T06:26:39.736Z,3.16
2019-01-29T06:29:13.137Z,3.16
2019-01-29T06:31:46.476Z,3.16
2019-01-29T06:34:20.384Z,3.12
2019-01-29T06:36:53.813Z,3.12
2019-01-29T06:39:27.115Z,3.17
2019-01-29T06:42:02.264Z,3.22
2019-01-29T06:44:36.426Z,3.13
2019-01-29T06:47:10.039Z,3.15
2019-01-29T06:49:43.565Z,3.05
2019-01-29T06:52:16.960Z,3.06
2019-01-29T06:54:50.302Z,3.08
2019-01-29T06:57:24.924Z,3.14
2019-01-29T06:59:58.855Z,3.05
2019-01-29T07:02:32.568Z,3.00
2019-01-29T07:05:08.350Z,2.98
2019-01-29T07:07:42.541Z,2.98
2019-01-29T07:10:24.991Z,2.99
2019-01-29T07:12:58.751Z,2.94
2019-01-29T07:15:33.474Z,2.82
2019-01-29T07:18:06.777Z,2.83
2019-01-29T07:20:41.433Z,2.76
2019-01-29T07:23:14.670Z,2.85
2019-01-29T07:25:49.100Z,2.72
2019-01-29T07:28:22.174Z,2.65
2019-01-29T07:30:55.775Z,2.64
2019-01-29T07:33:29.187Z,2.60
2019-01-29T07:36:02.559Z,2.66
2019-01-29T07:38:36.301Z,2.61
2019-01-29T07:41:11.591Z,2.60
2019-01-29T07:43:45.202Z,2.54
2019-01-29T07:46:18.701Z,2.43
2019-01-29T07:48:52.242Z,2.49
2019-01-29T07:51:25.745Z,2.44
2019-01-29T07:53:59.942Z,2.36
2019-01-29T07:56:34.231Z,2.31
2019-01-29T07:59:08.835Z,2.26
2019-01-29T08:01:42.475Z,2.28
2019-01-29T08:04:17.644Z,2.28
2019-01-29T08:06:51.363Z,2.26
2019-01-29T08:09:43.909Z,2.21
2019-01-29T08:12:18.722Z,2.11
2019-01-29T08:14:52.367Z,2.21
2019-01-29T08:17:25.454Z,2.21
2019-01-29T08:19:59.221Z,2.10
2019-01-29T08:22:32.798Z,2.03
2019-01-29T08:25:07.643Z,1.93
2019-01-29T08:27:41.910Z,1.92
2019-01-29T08:30:16.968Z,1.71
2019-01-29T08:32:50.508Z,1.58
2019-01-29T08:35:25.558Z,1.61
2019-01-29T08:38:00.320Z,1.49
2019-01-29T08:40:33.925Z,1.63
2019-01-29T08:43:07.783Z,1.73
2019-01-29T08:45:41.539Z,1.55
2019-01-29T08:48:14.953Z,1.36
2019-01-29T08:50:49.570Z,1.31
2019-01-29T08:53:24.231Z,1.11
2019-01-29T08:56:04.403Z,1.02
2019-01-29T08:58:37.494Z,0.93
2019-01-29T09:01:11.076Z,1.08
2019-01-29T09:03:44.598Z,1.13
2019-01-29T09:06:17.787Z,1.13
2019-01-29T09:08:52.301Z,1.14
2019-01-29T09:11:25.884Z,1.22
2019-01-29T09:13:59.659Z,1.13
2019-01-29T09:16:34.014Z,1.31
2019-01-29T09:19:08.009Z,1.03
2019-01-29T09:21:44.623Z,0.99
2019-01-29T09:24:20.610Z,1.10
2019-01-29T09:26:55.227Z,1.24
2019-01-29T09:29:28.933Z,1.05
2019-01-29T09:32:02.772Z,0.88
2019-01-29T09:34:36.361Z,0.92
2019-01-29T09:37:11.356Z,1.00
2019-01-29T09:39:45.326Z,0.97
2019-01-29T09:42:21.544Z,0.71
2019-01-29T09:44:57.405Z,0.73
2019-01-29T09:47:31.944Z,0.82
2019-01-29T09:50:09.020Z,0.82
2019-01-29T09:52:44.804Z,0.76
2019-01-29T09:55:28.768Z,0.85
2019-01-29T09:57:59.463Z,1.00
2019-01-29T10:00:41.279Z,1.05
2019-01-29T10:15:02.997Z,1.18
2019-01-29T10:17:38.748Z,1.06
2019-01-29T10:20:13.886Z,1.07
2019-01-29T10:22:51.424Z,1.15
2019-01-29T10:25:37.013Z,1.22
2019-01-29T10:28:04.970Z,1.04
2019-01-29T10:30:44.601Z,1.09
2019-01-29T10:33:24.155Z,1.12
2019-01-29T10:36:00.817Z,1.06
2019-01-29T10:38:35.739Z,1.15
2019-01-29T10:41:10.833Z,0.98
2019-01-29T10:43:46.874Z,0.98
2019-01-29T10:46:25.425Z,0.92
2019-01-29T10:49:02.253Z,0.82
2019-01-29T10:51:37.277Z,0.96
2019-01-29T10:54:14.142Z,0.89
2019-01-29T10:56:48.391Z,0.88
2019-01-29T10:59:23.279Z,0.86
2019-01-29T11:01:59.127Z,0.70
2019-01-29T11:04:37.701Z,0.73
2019-01-29T11:07:12.575Z,0.62
2019-01-29T11:09:48.533Z,0.73
2019-01-29T11:12:26.071Z,0.75
2019-01-29T11:15:02.055Z,0.57
2019-01-29T11:17:39.738Z,0.75
2019-01-29T11:20:27.622Z,0.86
2019-01-29T11:23:04.480Z,0.66
2019-01-29T11:25:42.235Z,0.68
2019-01-29T11:28:19.387Z,0.58
2019-01-29T11:30:56.109Z,0.66
2019-01-29T11:33:31.504Z,0.58
2019-01-29T11:36:09.316Z,0.53
2019-01-29T11:38:49.490Z,0.48
2019-01-29T11:41:25.658Z,0.42
2019-01-29T11:44:07.472Z,0.60
2019-01-29T11:46:48.484Z,0.48
2019-01-29T11:49:23.671Z,0.40
2019-01-29T11:52:03.681Z,0.39
2019-01-29T11:54:44.979Z,0.43
2019-01-29T11:57:28.708Z,0.59
2019-01-29T12:00:11.316Z,0.59
2019-01-29T12:02:48.088Z,0.56
2019-01-29T12:05:30.400Z,0.48
2019-01-29T12:11:03.382Z,0.34
2019-01-29T12:13:38.584Z,0.26
2019-01-29T12:16:15.622Z,0.36
2019-01-29T12:21:52.325Z,0.35
2019-01-29T12:24:42.152Z,0.26
2019-01-29T12:27:29.060Z,0.30
2019-01-29T12:30:11.834Z,0.29
2019-01-29T12:32:51.535Z,0.34
2019-01-29T12:35:31.358Z,0.30
2019-01-29T12:38:10.776Z,0.26
2019-01-29T12:40:47.425Z,0.20
2019-01-29T12:43:23.040Z,0.07
2019-01-29T12:45:58.187Z,0.00
2019-01-29T12:48:35.929Z,0.12
2019-01-29T12:51:13.116Z,0.11
2019-01-29T12:53:50.645Z,-0.04
2019-01-29T12:56:25.672Z,-0.19
2019-01-29T12:59:02.808Z,-0.31
2019-01-29T13:01:42.773Z,-0.13
2019-01-29T13:04:17.793Z,0.02
2019-01-29T13:07:05.780Z,0.03
2019-01-29T13:09:42.817Z,0.10
2019-01-29T13:12:24.971Z,0.08
2019-01-29T13:15:01.318Z,0.13
2019-01-29T13:17:37.795Z,0.03
2019-01-29T13:20:19.280Z,-0.05
2019-01-29T13:22:54.385Z,-0.02
2019-01-29T13:25:32.596Z,0.07
2019-01-29T13:28:10.340Z,0.15
2019-01-29T13:30:44.759Z,0.19
2019-01-29T13:33:21.760Z,0.13
2019-01-29T13:35:59.446Z,0.11
2019-01-29T13:38:35.636Z,-0.11
2019-01-29T13:41:24.936Z,-0.16
2019-01-29T13:44:05.851Z,-0.13
2019-01-29T13:46:41.157Z,-0.17
2019-01-29T13:49:21.214Z,-0.10
2019-01-29T13:51:58.276Z,-0.22
2019-01-29T13:54:33.256Z,-0.28
2019-01-29T13:57:09.304Z,-0.17
2019-01-29T13:59:47.090Z,-0.13
2019-01-29T14:02:23.034Z,-0.21
2019-01-29T14:05:01.326Z,-0.39
2019-01-29T14:07:42.024Z,-0.50
2019-01-29T14:10:21.345Z,-0.45
2019-01-29T14:13:02.571Z,-0.34
2019-01-29T14:15:38.405Z,-0.28
2019-01-29T14:18:13.992Z,-0.42
2019-01-29T14:20:48.576Z,-0.43
2019-01-29T14:23:24.946Z,-0.27
2019-01-29T14:26:00.267Z,-0.24
2019-01-29T14:28:44.806Z,-0.25
2019-01-29T14:31:22.407Z,-0.17
2019-01-29T14:34:00.825Z,-0.12
2019-01-29T14:36:35.696Z,-0.15
2019-01-29T14:39:21.468Z,-0.15
2019-01-29T14:41:58.785Z,-0.29
2019-01-29T14:44:34.000Z,-0.39
2019-01-29T14:47:13.558Z,-0.20
2019-01-29T14:49:52.876Z,-0.17
2019-01-29T14:52:29.279Z,-0.11
2019-01-29T14:55:04.476Z,-0.21
2019-01-29T14:57:41.079Z,-0.29
2019-01-29T15:00:26.471Z,-0.22
2019-01-29T15:03:03.777Z,-0.22
2019-01-29T15:05:39.056Z,-0.17
2019-01-29T15:08:13.193Z,-0.20
2019-01-29T15:10:47.562Z,-0.17
2019-01-29T15:13:21.814Z,-0.15
2019-01-29T15:15:57.376Z,-0.24
2019-01-29T15:18:40.482Z,-0.44
2019-01-29T15:21:07.710Z,-0.44
2019-01-29T15:23:42.658Z,-0.37
2019-01-29T15:26:18.317Z,-0.39
2019-01-29T15:28:52.477Z,-0.28
2019-01-29T15:31:26.374Z,-0.37
2019-01-29T15:34:00.467Z,-0.34
2019-01-29T15:36:34.771Z,-0.50
2019-01-29T15:39:10.735Z,-0.39
2019-01-29T15:41:44.583Z,-0.27
2019-01-29T15:44:18.569Z,-0.18
2019-01-29T15:46:53.101Z,-0.13
2019-01-29T15:49:26.918Z,-0.10
2019-01-29T15:52:00.768Z,-0.09
2019-01-29T15:54:36.190Z,-0.12
2019-01-29T15:57:14.264Z,-0.03
2019-01-29T15:59:45.007Z,0.01
2019-01-29T16:02:18.960Z,0.04
2019-01-29T16:04:52.958Z,0.06
2019-01-29T16:07:26.201Z,-0.12
2019-01-29T16:10:00.961Z,-0.10
2019-01-29T16:12:34.430Z,-0.10
2019-01-29T16:15:10.848Z,-0.10
2019-01-29T16:17:44.191Z,-0.02
2019-01-29T16:20:20.251Z,-0.04
2019-01-29T16:22:53.739Z,-0.06
2019-01-29T16:25:34.794Z,0.01
2019-01-29T16:28:07.919Z,0.03
2019-01-29T16:30:41.825Z,0.01
2019-01-29T16:33:14.989Z,-0.04
2019-01-29T16:35:48.524Z,-0.02
2019-01-29T16:38:21.826Z,-0.03
2019-01-29T16:41:00.445Z,0.03
2019-01-29T16:43:30.216Z,-0.10
2019-01-29T16:46:04.968Z,-0.05
2019-01-29T16:48:40.537Z,-0.03
2019-01-29T16:51:14.120Z,-0.05
2019-01-29T16:53:47.417Z,-0.04
2019-01-29T16:56:20.636Z,-0.05
2019-01-29T16:58:54.231Z,-0.02
2019-01-29T17:01:28.448Z,-0.02
2019-01-29T17:04:01.532Z,-0.02
2019-01-29T17:06:34.932Z,-0.06
2019-01-29T17:09:12.822Z,0.00
2019-01-29T17:11:45.816Z,0.06
2019-01-29T17:14:19.219Z,0.03
2019-01-29T17:16:52.654Z,-0.10
2019-01-29T17:19:25.870Z,-0.13
2019-01-29T17:21:59.330Z,-0.04
2019-01-29T17:24:32.383Z,-0.17
2019-01-29T17:27:05.977Z,-0.17
2019-01-29T17:29:39.429Z,-0.18
2019-01-29T17:32:12.920Z,-0.17
2019-01-29T17:34:46.301Z,-0.15
2019-01-29T17:37:19.922Z,-0.15
2019-01-29T17:39:53.323Z,-0.11
2019-01-29T17:42:26.616Z,-0.16
2019-01-29T17:45:01.579Z,-0.13
2019-01-29T17:47:35.611Z,-0.23
2019-01-29T17:50:14.369Z,-0.21
2019-01-29T17:52:48.152Z,-0.20
2019-01-29T17:55:21.746Z,-0.17
2019-01-29T17:57:55.354Z,-0.21
2019-01-29T18:00:31.222Z,-0.31
2019-01-29T18:03:05.118Z,-0.29
2019-01-29T18:05:38.557Z,-0.29
2019-01-29T18:08:12.868Z,-0.34
2019-01-29T18:10:46.292Z,-0.30
2019-01-29T18:13:19.472Z,-0.30
2019-01-29T18:15:52.876Z,-0.31
2019-01-29T18:18:26.534Z,-0.33
2019-01-29T18:21:00.103Z,-0.26
2019-01-29T18:23:33.308Z,-0.29
2019-01-29T18:26:06.873Z,-0.38
2019-01-29T18:28:40.372Z,-0.38
2019-01-29T18:31:16.846Z,-0.35
2019-01-29T18:33:51.453Z,-0.27
2019-01-29T18:36:24.904Z,-0.34
2019-01-29T18:38:58.913Z,-0.35
2019-01-29T18:41:32.529Z,-0.41
2019-01-29T18:44:05.883Z,-0.39
2019-01-29T18:46:39.335Z,-0.31
2019-01-29T18:49:14.137Z,-0.36
2019-01-29T18:51:47.920Z,-0.40
2019-01-29T18:54:22.012Z,-0.34
2019-01-29T18:56:55.534Z,-0.44
2019-01-29T18:59:29.165Z,-0.49
2019-01-29T19:02:02.426Z,-0.45
2019-01-29T19:04:35.804Z,-0.43
2019-01-29T19:07:09.395Z,-0.54
2019-01-29T19:09:43.223Z,-0.57
2019-01-29T19:12:16.530Z,-0.62
2019-01-29T19:14:50.123Z,-0.78
2019-01-29T19:17:23.438Z,-0.86
2019-01-29T19:19:56.753Z,-0.86
2019-01-29T19:22:30.032Z,-0.80
2019-01-29T19:25:03.450Z,-0.91
2019-01-29T19:27:36.849Z,-1.05
2019-01-29T19:30:14.576Z,-1.02
2019-01-29T19:32:47.685Z,-1.18
2019-01-29T19:35:20.984Z,-1.22
2019-01-29T19:37:54.307Z,-1.28
2019-01-29T19:40:27.621Z,-1.28
2019-01-29T19:43:01.167Z,-1.39
2019-01-29T19:45:37.773Z,-1.42
2019-01-29T19:48:10.964Z,-1.42
2019-01-29T19:50:44.940Z,-1.54
2019-01-29T19:53:19.350Z,-1.55
2019-01-29T19:55:53.141Z,-1.69
2019-01-29T19:58:32.295Z,-1.81
2019-01-29T20:01:02.952Z,-1.66
2019-01-29T20:03:36.275Z,-1.72
2019-01-29T20:06:10.340Z,-1.72
2019-01-29T20:08:43.512Z,-1.92
2019-01-29T20:11:17.203Z,-2.01
2019-01-29T20:13:50.522Z,-1.99
2019-01-29T20:16:23.777Z,-2.06
2019-01-29T20:18:56.957Z,-2.13
2019-01-29T20:21:30.673Z,-2.15
2019-01-29T20:24:04.022Z,-2.21
2019-01-29T20:26:37.148Z,-2.28
2019-01-29T20:29:10.461Z,-2.37
2019-01-29T20:31:43.391Z,-2.28
2019-01-29T20:34:17.606Z,-2.42
2019-01-29T20:36:50.747Z,-2.35
2019-01-29T20:39:34.495Z,-2.55
2019-01-29T20:41:59.560Z,-2.66
2019-01-29T20:44:33.053Z,-2.45
2019-01-29T20:47:06.259Z,-2.58
2019-01-29T20:49:39.437Z,-2.73
2019-01-29T20:52:12.505Z,-3.13
2019-01-29T20:54:45.461Z,-3.19
2019-01-29T20:57:18.631Z,-3.28
2019-01-29T20:59:51.951Z,-3.36
2019-01-29T21:02:25.435Z,-3.62
2019-01-29T21:05:00.295Z,-3.63
2019-01-29T21:07:34.531Z,-3.75
2019-01-29T21:10:17.818Z,-3.72
2019-01-29T21:12:50.931Z,-3.95
2019-01-29T21:15:38.147Z,-3.85
2019-01-29T21:18:04.378Z,-3.90
2019-01-29T21:20:38.060Z,-4.06
2019-01-29T21:23:11.969Z,-3.93
2019-01-29T21:25:45.295Z,-3.94
2019-01-29T21:28:18.472Z,-4.14
2019-01-29T21:30:54.355Z,-4.15
2019-01-29T21:33:27.668Z,-4.35
2019-01-29T21:36:01.177Z,-4.48
2019-01-29T21:38:34.459Z,-4.39
2019-01-29T21:41:11.313Z,-4.41
2019-01-29T21:43:45.435Z,-4.64
2019-01-29T21:46:25.738Z,-4.63
2019-01-29T21:48:59.478Z,-4.66
2019-01-29T21:51:32.713Z,-4.82
2019-01-29T21:54:05.914Z,-5.06
2019-01-29T21:56:39.392Z,-5.12
2019-01-29T21:59:13.626Z,-5.14
2019-01-29T22:01:46.719Z,-5.17
2019-01-29T22:04:21.407Z,-5.22
2019-01-29T22:06:55.926Z,-5.17
2019-01-29T22:09:28.978Z,-5.19
2019-01-29T22:12:02.591Z,-5.13
2019-01-29T22:14:36.207Z,-5.22
2019-01-29T22:17:11.434Z,-5.35
2019-01-29T22:19:44.883Z,-5.62
2019-01-29T22:22:18.642Z,-5.83
2019-01-29T22:24:52.189Z,-5.78
2019-01-29T22:27:25.855Z,-6.13
2019-01-29T22:29:59.369Z,-6.40
2019-01-29T22:32:33.077Z,-6.30
2019-01-29T22:35:06.723Z,-6.20
2019-01-29T22:37:40.026Z,-6.31
2019-01-29T22:40:18.587Z,-6.42
2019-01-29T22:42:52.778Z,-6.49
2019-01-29T22:45:29.857Z,-6.46
2019-01-29T22:48:01.660Z,-6.55
2019-01-29T22:50:40.406Z,-6.51
2019-01-29T22:53:13.479Z,-6.71
2019-01-29T22:55:46.517Z,-6.91
2019-01-29T22:58:27.228Z,-6.76
2019-01-29T23:01:12.558Z,-6.67
2019-01-29T23:03:48.478Z,-6.92
2019-01-29T23:06:49.113Z,-6.82
2019-01-29T23:09:22.400Z,-6.93
2019-01-29T23:11:55.438Z,-6.89
2019-01-29T23:14:28.712Z,-6.75
2019-01-29T23:17:02.656Z,-6.62
2019-01-29T23:19:36.250Z,-6.73
2019-01-29T23:22:09.952Z,-6.99
2019-01-29T23:24:43.262Z,-7.15
2019-01-29T23:27:16.955Z,-7.24
2019-01-29T23:29:50.408Z,-7.22
2019-01-29T23:32:23.751Z,-7.28
2019-01-29T23:34:57.163Z,-7.43
2019-01-29T23:37:30.637Z,-7.45
2019-01-29T23:40:03.791Z,-7.24
2019-01-29T23:42:38.174Z,-7.36
2019-01-29T23:45:13.709Z,-7.45
2019-01-29T23:47:47.829Z,-7.35
2019-01-29T23:50:20.760Z,-7.29
2019-01-29T23:52:53.819Z,-7.48
2019-01-29T23:55:28.051Z,-7.36
2019-01-29T23:58:01.420Z,-7.42
